createdAt,value
2023-03-29T00:03:52.684Z,4.00
2023-03-29T00:06:25.251Z,3.90
2023-03-29T00:09:23.288Z,3.80
2023-03-29T00:12:25.321Z,3.80
2023-03-29T00:15:13.576Z,3.60
2023-03-29T00:18:01.771Z,3.50
2023-03-29T00:24:34.332Z,3.40
2023-03-29T00:28:04.971Z,3.50
2023-03-29T00:30:39.531Z,3.50
2023-03-29T00:33:09.260Z,3.30
2023-03-29T00:35:40.147Z,3.20
2023-03-29T00:38:08.557Z,3.30
2023-03-29T00:40:43.785Z,3.30
2023-03-29T00:43:14.874Z,3.30
2023-03-29T00:45:43.869Z,3.30
2023-03-29T00:48:15.897Z,3.20
2023-03-29T00:50:48.543Z,3.10
2023-03-29T00:53:21.523Z,3.10
2023-03-29T00:55:54.087Z,3.00
2023-03-29T00:58:27.774Z,3.00
2023-03-29T01:01:04.906Z,3.00
2023-03-29T01:03:38.109Z,2.90
2023-03-29T01:06:08.892Z,2.90
2023-03-29T01:08:44.033Z,2.90
2023-03-29T01:11:19.347Z,2.80
2023-03-29T01:13:55.177Z,2.90
2023-03-29T01:16:25.927Z,2.80
2023-03-29T01:18:55.151Z,2.80
2023-03-29T01:21:29.400Z,2.90
2023-03-29T01:24:26.007Z,3.00
2023-03-29T01:27:03.078Z,2.90
2023-03-29T01:29:36.512Z,3.00
2023-03-29T01:32:10.077Z,3.00
2023-03-29T01:34:44.980Z,3.00
2023-03-29T01:37:21.942Z,2.90
2023-03-29T01:39:50.470Z,2.90
2023-03-29T01:42:31.019Z,3.00
2023-03-29T01:45:07.436Z,2.90
2023-03-29T01:47:47.168Z,2.90
2023-03-29T01:50:21.660Z,3.00
2023-03-29T01:52:56.419Z,3.00
2023-03-29T01:55:29.686Z,3.00
2023-03-29T01:58:01.577Z,3.00
2023-03-29T02:00:31.816Z,3.00
2023-03-29T02:03:03.377Z,3.00
2023-03-29T02:05:32.838Z,2.80
2023-03-29T02:08:02.645Z,2.90
2023-03-29T02:10:34.537Z,2.90
2023-03-29T02:13:03.052Z,2.90
2023-03-29T02:15:33.370Z,3.00
2023-03-29T02:18:01.666Z,2.90
2023-03-29T02:20:33.867Z,2.90
2023-03-29T02:23:08.999Z,3.00
2023-03-29T02:25:40.988Z,3.00
2023-03-29T02:28:09.543Z,2.90
2023-03-29T02:30:48.634Z,2.90
2023-03-29T02:33:19.696Z,2.80
2023-03-29T02:35:53.491Z,2.80
2023-03-29T02:38:25.585Z,2.80
2023-03-29T02:40:56.997Z,2.80
2023-03-29T02:43:30.295Z,2.80
2023-03-29T02:46:03.072Z,2.80
2023-03-29T02:48:33.683Z,2.80
2023-03-29T02:51:09.537Z,2.80
2023-03-29T02:53:43.020Z,2.90
2023-03-29T02:56:12.477Z,2.80
2023-03-29T02:58:41.581Z,2.80
2023-03-29T03:01:11.670Z,2.80
2023-03-29T03:03:41.351Z,2.80
2023-03-29T03:06:10.506Z,2.90
2023-03-29T03:08:39.129Z,2.90
2023-03-29T03:11:08.479Z,2.90
2023-03-29T03:13:41.290Z,2.80
2023-03-29T03:16:11.706Z,2.90
2023-03-29T03:18:40.236Z,2.90
2023-03-29T03:21:09.605Z,2.90
2023-03-29T03:23:37.955Z,2.90
2023-03-29T03:26:06.427Z,2.90
2023-03-29T03:28:35.432Z,2.90
2023-03-29T03:31:04.188Z,2.90
2023-03-29T03:33:34.384Z,2.90
2023-03-29T03:36:05.490Z,3.00
2023-03-29T03:38:35.240Z,3.00
2023-03-29T03:41:04.341Z,2.90
2023-03-29T03:43:32.883Z,2.90
2023-03-29T03:46:01.605Z,3.00
2023-03-29T03:48:31.753Z,3.00
2023-03-29T03:51:03.558Z,3.00
2023-03-29T03:53:33.775Z,2.90
2023-03-29T03:56:02.287Z,3.00
2023-03-29T03:58:42.349Z,3.00
2023-03-29T04:01:10.456Z,2.90
2023-03-29T04:03:39.209Z,3.00
2023-03-29T04:06:13.679Z,2.90
2023-03-29T04:08:42.814Z,2.90
2023-03-29T04:11:11.626Z,2.90
2023-03-29T04:13:40.731Z,2.90
2023-03-29T04:16:10.162Z,3.00
2023-03-29T04:18:39.449Z,3.00
2023-03-29T04:21:09.754Z,3.10
2023-03-29T04:23:39.193Z,3.00
2023-03-29T04:26:07.769Z,2.90
2023-03-29T04:28:36.448Z,2.90
2023-03-29T04:31:05.181Z,3.00
2023-03-29T04:33:33.780Z,3.00
2023-03-29T04:36:02.535Z,3.00
2023-03-29T04:38:36.173Z,3.10
2023-03-29T04:41:08.825Z,3.10
2023-03-29T04:43:40.127Z,3.20
2023-03-29T04:46:09.197Z,3.10
2023-03-29T04:48:37.950Z,3.10
2023-03-29T04:51:08.172Z,3.10
2023-03-29T04:53:38.129Z,3.10
2023-03-29T04:56:08.131Z,3.10
2023-03-29T04:58:37.389Z,3.20
2023-03-29T05:01:07.396Z,3.20
2023-03-29T05:03:36.494Z,3.30
2023-03-29T05:06:07.230Z,3.30
2023-03-29T05:08:39.328Z,3.20
2023-03-29T05:11:08.540Z,3.20
2023-03-29T05:13:37.754Z,3.30
2023-03-29T05:16:07.908Z,3.30
2023-03-29T05:18:37.041Z,3.30
2023-03-29T05:21:06.450Z,3.30
2023-03-29T05:23:36.179Z,3.30
2023-03-29T05:26:08.178Z,3.30
2023-03-29T05:28:36.602Z,3.30
2023-03-29T05:31:06.428Z,3.30
2023-03-29T05:33:36.715Z,3.40
2023-03-29T05:36:07.976Z,3.40
2023-03-29T05:38:37.110Z,3.40
2023-03-29T05:41:12.010Z,3.50
2023-03-29T05:43:42.426Z,3.40
2023-03-29T05:46:12.651Z,3.40
2023-03-29T05:48:41.639Z,3.50
2023-03-29T05:51:10.065Z,3.50
2023-03-29T05:53:38.992Z,3.60
2023-03-29T05:56:10.805Z,3.60
2023-03-29T05:58:39.700Z,3.60
2023-03-29T06:01:12.952Z,3.60
2023-03-29T06:03:42.306Z,3.70
2023-03-29T06:06:16.295Z,3.70
2023-03-29T06:08:46.521Z,3.70
2023-03-29T06:11:16.721Z,3.80
2023-03-29T06:13:45.169Z,3.80
2023-03-29T06:16:15.070Z,3.80
2023-03-29T06:18:43.644Z,3.90
2023-03-29T06:21:12.722Z,3.90
2023-03-29T06:23:42.478Z,4.00
2023-03-29T06:26:12.955Z,4.00
2023-03-29T06:28:42.700Z,4.10
2023-03-29T06:31:11.129Z,4.10
2023-03-29T06:33:40.345Z,4.10
2023-03-29T06:36:09.834Z,4.10
2023-03-29T06:38:38.204Z,4.10
2023-03-29T06:41:08.750Z,4.10
2023-03-29T06:43:37.159Z,4.20
2023-03-29T06:46:12.243Z,4.20
2023-03-29T06:48:42.263Z,4.20
2023-03-29T06:51:11.505Z,4.20
2023-03-29T06:53:41.259Z,4.30
2023-03-29T06:56:12.207Z,4.30
2023-03-29T06:58:41.939Z,4.40
2023-03-29T07:01:14.082Z,4.50
2023-03-29T07:03:46.088Z,4.50
2023-03-29T07:06:17.698Z,4.50
2023-03-29T07:08:50.629Z,4.70
2023-03-29T07:11:20.422Z,4.70
2023-03-29T07:13:51.856Z,4.70
2023-03-29T07:16:21.793Z,4.80
2023-03-29T07:18:51.263Z,4.80
2023-03-29T07:21:21.535Z,4.80
2023-03-29T07:23:50.270Z,4.90
2023-03-29T07:26:28.611Z,4.90
2023-03-29T07:28:58.979Z,5.00
2023-03-29T07:31:29.954Z,5.40
2023-03-29T07:33:58.332Z,5.50
2023-03-29T07:36:28.665Z,5.80
2023-03-29T07:39:01.903Z,6.00
2023-03-29T07:41:30.311Z,6.10
2023-03-29T07:44:04.975Z,6.20
2023-03-29T07:46:35.666Z,6.00
2023-03-29T07:49:04.051Z,6.10
2023-03-29T07:51:32.978Z,6.30
2023-03-29T07:54:01.142Z,6.30
2023-03-29T07:56:29.332Z,6.40
2023-03-29T07:58:57.617Z,6.50
2023-03-29T08:01:26.343Z,6.30
2023-03-29T08:04:00.238Z,6.20
2023-03-29T08:06:28.544Z,6.10
2023-03-29T08:08:56.819Z,6.10
2023-03-29T08:11:25.941Z,6.20
2023-03-29T08:13:54.345Z,6.30
2023-03-29T08:16:23.583Z,6.10
2023-03-29T08:18:52.941Z,6.20
2023-03-29T08:21:23.363Z,6.20
2023-03-29T08:23:52.018Z,6.60
2023-03-29T08:26:20.278Z,7.00
2023-03-29T08:29:33.301Z,7.20
2023-03-29T08:32:01.530Z,7.40
2023-03-29T08:34:31.687Z,7.40
2023-03-29T08:37:01.244Z,7.40
2023-03-29T08:39:29.877Z,7.30
2023-03-29T08:42:13.141Z,7.20
2023-03-29T08:44:56.581Z,7.00
2023-03-29T08:47:33.681Z,7.20
2023-03-29T08:50:02.305Z,7.50
2023-03-29T08:52:36.909Z,8.00
2023-03-29T08:55:12.673Z,8.10
2023-03-29T08:57:46.481Z,7.80
2023-03-29T09:00:23.051Z,7.70
2023-03-29T09:02:53.983Z,7.60
2023-03-29T09:05:28.086Z,7.70
2023-03-29T09:07:58.203Z,7.40
2023-03-29T09:10:37.278Z,7.10
2023-03-29T09:13:21.249Z,7.00
2023-03-29T09:15:55.774Z,7.00
2023-03-29T09:18:34.794Z,7.00
2023-03-29T09:21:14.607Z,7.10
2023-03-29T09:24:15.624Z,7.10
2023-03-29T09:26:49.888Z,7.40
2023-03-29T09:29:45.493Z,7.80
2023-03-29T09:32:20.619Z,8.00
2023-03-29T09:34:55.532Z,8.60
2023-03-29T09:37:29.905Z,8.90
2023-03-29T09:40:00.190Z,9.30
2023-03-29T09:42:30.945Z,9.70
2023-03-29T09:45:08.566Z,10.10
2023-03-29T09:47:43.418Z,9.30
2023-03-29T09:50:29.604Z,8.70
2023-03-29T09:52:59.660Z,8.40
2023-03-29T09:55:32.397Z,8.20
2023-03-29T09:58:12.675Z,8.20
2023-03-29T10:00:41.560Z,8.00
2023-03-29T10:03:10.921Z,7.90
2023-03-29T10:05:40.043Z,7.80
2023-03-29T10:08:20.127Z,7.80
2023-03-29T10:10:50.681Z,7.80
2023-03-29T10:13:23.251Z,7.90
2023-03-29T10:16:02.578Z,7.90
2023-03-29T10:18:31.833Z,7.90
2023-03-29T10:21:02.668Z,7.90
2023-03-29T10:23:37.077Z,8.00
2023-03-29T10:26:08.884Z,8.20
2023-03-29T10:28:38.569Z,8.00
2023-03-29T10:31:09.080Z,8.10
2023-03-29T10:33:37.774Z,8.00
2023-03-29T10:36:09.631Z,8.10
2023-03-29T10:38:39.545Z,8.20
2023-03-29T10:41:13.826Z,8.20
2023-03-29T10:43:46.856Z,8.40
2023-03-29T10:46:22.382Z,8.70
2023-03-29T10:48:52.821Z,8.90
2023-03-29T10:51:21.172Z,9.20
2023-03-29T10:53:50.132Z,9.30
2023-03-29T10:56:43.039Z,9.50
2023-03-29T10:59:25.414Z,9.50
2023-03-29T11:02:10.241Z,9.50
2023-03-29T11:04:46.948Z,9.60
2023-03-29T11:07:27.246Z,9.90
2023-03-29T11:10:05.939Z,9.90
2023-03-29T11:12:46.696Z,9.80
2023-03-29T11:15:31.370Z,9.80
2023-03-29T11:18:17.845Z,9.50
2023-03-29T11:20:49.722Z,9.20
2023-03-29T11:23:31.613Z,9.20
2023-03-29T11:26:09.775Z,9.30
2023-03-29T11:28:47.293Z,9.40
2023-03-29T11:32:09.969Z,9.50
2023-03-29T11:34:55.164Z,9.60
2023-03-29T11:37:30.295Z,9.20
2023-03-29T11:40:10.440Z,9.30
2023-03-29T11:42:44.429Z,9.30
2023-03-29T11:45:18.754Z,9.20
2023-03-29T11:47:59.020Z,9.30
2023-03-29T11:50:36.043Z,9.30
2023-03-29T11:53:09.875Z,9.40
2023-03-29T11:55:41.463Z,9.40
2023-03-29T11:58:18.443Z,9.40
2023-03-29T12:00:52.050Z,9.20
2023-03-29T12:03:25.767Z,9.30
2023-03-29T12:06:00.351Z,9.50
2023-03-29T12:08:34.063Z,9.50
2023-03-29T12:11:08.847Z,9.50
2023-03-29T12:13:43.085Z,9.50
2023-03-29T12:16:19.155Z,9.50
2023-03-29T12:18:50.673Z,9.60
2023-03-29T12:21:22.634Z,9.60
2023-03-29T12:23:52.241Z,9.60
2023-03-29T12:26:38.868Z,9.50
2023-03-29T12:29:22.472Z,9.70
2023-03-29T12:32:03.528Z,9.90
2023-03-29T12:34:47.209Z,10.10
2023-03-29T12:37:38.232Z,10.10
2023-03-29T12:40:20.493Z,10.20
2023-03-29T12:42:52.802Z,10.20
2023-03-29T12:45:30.105Z,10.30
2023-03-29T12:48:01.909Z,10.40
2023-03-29T12:50:36.089Z,10.70
2023-03-29T12:53:18.016Z,10.80
2023-03-29T12:55:55.140Z,10.90
2023-03-29T12:58:28.813Z,11.30
2023-03-29T13:01:08.638Z,11.30
2023-03-29T13:03:48.705Z,11.10
2023-03-29T13:06:30.817Z,11.20
2023-03-29T13:09:02.049Z,11.10
2023-03-29T13:11:35.543Z,11.10
2023-03-29T13:14:13.319Z,11.20
2023-03-29T13:16:42.864Z,11.10
2023-03-29T13:19:27.097Z,11.20
2023-03-29T13:22:08.251Z,11.30
2023-03-29T13:25:01.283Z,11.40
2023-03-29T13:27:39.655Z,11.50
2023-03-29T13:30:25.717Z,11.50
2023-03-29T13:33:18.918Z,11.50
2023-03-29T13:35:55.947Z,11.50
2023-03-29T13:38:28.770Z,11.30
2023-03-29T13:41:03.343Z,11.40
2023-03-29T13:43:35.074Z,11.50
2023-03-29T13:46:22.438Z,11.70
2023-03-29T13:49:00.191Z,11.70
2023-03-29T13:51:36.025Z,11.90
2023-03-29T13:54:11.459Z,12.00
2023-03-29T13:56:51.517Z,12.20
2023-03-29T13:59:26.792Z,12.40
2023-03-29T14:02:00.389Z,12.30
2023-03-29T14:04:31.996Z,12.00
2023-03-29T14:07:03.282Z,12.20
2023-03-29T14:09:33.989Z,12.40
2023-03-29T14:12:03.395Z,12.20
2023-03-29T14:14:33.899Z,12.00
2023-03-29T14:17:02.888Z,12.00
2023-03-29T14:19:33.082Z,12.20
2023-03-29T14:22:03.958Z,12.20
2023-03-29T14:24:38.718Z,12.10
2023-03-29T14:27:10.133Z,12.20
2023-03-29T14:29:38.591Z,12.20
2023-03-29T14:32:11.828Z,12.00
2023-03-29T14:34:40.788Z,12.00
2023-03-29T14:37:13.739Z,11.90
2023-03-29T14:39:42.309Z,11.90
2023-03-29T14:42:20.789Z,11.90
2023-03-29T14:44:52.100Z,11.90
2023-03-29T14:47:27.788Z,11.90
2023-03-29T14:50:00.599Z,11.90
2023-03-29T14:52:31.571Z,11.90
2023-03-29T14:55:02.386Z,12.00
2023-03-29T14:57:35.234Z,12.00
2023-03-29T15:00:17.267Z,12.00
2023-03-29T15:02:51.436Z,12.10
2023-03-29T15:05:27.186Z,12.00
2023-03-29T15:07:57.212Z,11.90
2023-03-29T15:10:25.925Z,11.90
2023-03-29T15:12:55.108Z,11.80
2023-03-29T15:15:25.899Z,11.90
2023-03-29T15:17:56.293Z,11.80
2023-03-29T15:20:28.119Z,11.90
2023-03-29T15:23:01.938Z,11.90
2023-03-29T15:25:34.661Z,12.00
2023-03-29T15:28:03.038Z,11.90
2023-03-29T15:30:35.966Z,12.00
2023-03-29T15:33:21.421Z,11.90
2023-03-29T15:35:53.150Z,11.90
2023-03-29T15:38:27.694Z,11.90
2023-03-29T15:40:58.872Z,11.90
2023-03-29T15:43:28.049Z,12.00
2023-03-29T15:45:56.542Z,11.90
2023-03-29T15:48:27.668Z,11.90
2023-03-29T15:50:57.222Z,11.90
2023-03-29T15:53:28.915Z,11.80
2023-03-29T15:56:01.678Z,11.80
2023-03-29T15:58:32.448Z,11.70
2023-03-29T16:01:11.548Z,11.70
2023-03-29T16:03:40.497Z,11.80
2023-03-29T16:06:12.294Z,11.70
2023-03-29T16:08:42.054Z,11.70
2023-03-29T16:11:10.379Z,11.60
2023-03-29T16:13:38.528Z,11.60
2023-03-29T16:16:08.226Z,11.60
2023-03-29T16:18:37.679Z,11.60
2023-03-29T16:21:06.709Z,11.50
2023-03-29T16:23:34.865Z,11.50
2023-03-29T16:26:06.488Z,11.40
2023-03-29T16:28:34.864Z,11.40
2023-03-29T16:31:03.180Z,11.40
2023-03-29T16:33:31.311Z,11.40
2023-03-29T16:35:59.643Z,11.30
2023-03-29T16:38:29.301Z,11.30
2023-03-29T16:40:58.134Z,11.20
2023-03-29T16:43:27.763Z,11.20
2023-03-29T16:45:56.925Z,11.20
2023-03-29T16:48:25.317Z,11.20
2023-03-29T16:50:54.116Z,11.10
2023-03-29T16:53:23.730Z,11.10
2023-03-29T16:55:51.931Z,11.10
2023-03-29T16:58:20.577Z,11.10
2023-03-29T17:00:51.885Z,11.10
2023-03-29T17:03:20.204Z,11.00
2023-03-29T17:05:49.930Z,11.00
2023-03-29T17:08:19.065Z,11.00
2023-03-29T17:10:47.582Z,11.00
2023-03-29T17:13:16.023Z,11.00
2023-03-29T17:15:44.411Z,10.90
2023-03-29T17:18:14.099Z,10.90
2023-03-29T17:20:42.457Z,10.80
2023-03-29T17:23:10.580Z,10.80
2023-03-29T17:25:38.776Z,10.80
2023-03-29T17:28:07.057Z,10.70
2023-03-29T17:30:35.534Z,10.70
2023-03-29T17:33:04.233Z,10.70
2023-03-29T17:35:34.312Z,10.70
2023-03-29T17:38:03.058Z,10.70
2023-03-29T17:40:31.939Z,10.70
2023-03-29T17:43:00.543Z,10.70
2023-03-29T17:45:28.954Z,10.70
2023-03-29T17:47:57.266Z,10.70
2023-03-29T17:50:25.781Z,10.70
2023-03-29T17:52:55.484Z,10.70
2023-03-29T17:55:23.701Z,10.60
2023-03-29T17:57:56.716Z,10.60
2023-03-29T18:00:26.922Z,10.60
2023-03-29T18:02:55.660Z,10.60
2023-03-29T18:05:25.536Z,10.60
2023-03-29T18:07:56.422Z,10.60
2023-03-29T18:10:26.446Z,10.60
2023-03-29T18:15:55.838Z,10.40
2023-03-29T18:18:28.337Z,10.40
2023-03-29T18:20:58.488Z,10.40
2023-03-29T18:23:28.778Z,10.40
2023-03-29T18:26:01.201Z,10.40
2023-03-29T18:28:55.343Z,10.50
2023-03-29T18:31:28.051Z,10.50
2023-03-29T18:33:56.999Z,10.60
2023-03-29T18:36:57.844Z,10.60
2023-03-29T18:39:27.539Z,10.60
2023-03-29T18:41:57.051Z,10.70
2023-03-29T18:44:30.271Z,10.70
2023-03-29T18:46:59.357Z,10.60
2023-03-29T18:49:28.043Z,10.50
2023-03-29T18:51:57.741Z,10.50
2023-03-29T18:54:29.271Z,10.50
2023-03-29T18:56:59.271Z,10.50
2023-03-29T18:59:29.319Z,10.60
2023-03-29T19:01:59.510Z,10.60
2023-03-29T19:04:28.854Z,10.70
2023-03-29T19:06:57.229Z,10.70
2023-03-29T19:09:27.788Z,10.70
2023-03-29T19:11:56.387Z,10.70
2023-03-29T19:14:25.461Z,10.70
2023-03-29T19:16:54.450Z,10.70
2023-03-29T19:19:26.326Z,10.70
2023-03-29T19:21:57.641Z,10.70
2023-03-29T19:24:28.811Z,10.70
2023-03-29T19:26:57.533Z,10.80
2023-03-29T19:29:27.307Z,10.70
2023-03-29T19:31:56.952Z,10.80
2023-03-29T19:34:26.862Z,10.70
2023-03-29T19:36:55.220Z,10.80
2023-03-29T19:39:25.222Z,10.80
2023-03-29T19:41:55.700Z,10.90
2023-03-29T19:44:24.644Z,10.80
2023-03-29T19:46:53.151Z,10.80
2023-03-29T19:49:22.372Z,10.70
2023-03-29T19:52:09.146Z,10.80
2023-03-29T19:54:39.240Z,10.90
2023-03-29T19:57:09.296Z,10.90
2023-03-29T19:59:40.729Z,10.90
2023-03-29T20:02:10.907Z,10.90
2023-03-29T20:04:39.806Z,10.90
2023-03-29T20:07:08.165Z,11.00
2023-03-29T20:09:36.763Z,11.00
2023-03-29T20:12:06.288Z,11.00
2023-03-29T20:14:37.924Z,11.00
2023-03-29T20:17:06.599Z,11.10
2023-03-29T20:19:36.728Z,11.00
2023-03-29T20:22:08.066Z,11.10
2023-03-29T20:24:36.519Z,11.00
2023-03-29T20:27:05.079Z,11.10
2023-03-29T20:29:34.251Z,11.10
2023-03-29T20:32:04.057Z,11.10
2023-03-29T20:34:32.325Z,11.10
2023-03-29T20:37:01.683Z,11.10
2023-03-29T20:39:31.420Z,11.20
2023-03-29T20:42:00.592Z,11.20
2023-03-29T20:44:29.310Z,11.30
2023-03-29T20:47:03.859Z,11.20
2023-03-29T20:49:37.115Z,11.20
2023-03-29T20:52:08.362Z,11.20
2023-03-29T20:54:38.692Z,11.20
2023-03-29T20:57:08.044Z,11.20
2023-03-29T20:59:38.017Z,11.20
2023-03-29T21:02:08.671Z,11.20
2023-03-29T21:04:42.109Z,11.20
2023-03-29T21:07:10.383Z,11.10
2023-03-29T21:09:38.952Z,11.10
2023-03-29T21:12:07.575Z,11.10
2023-03-29T21:14:35.816Z,11.10
2023-03-29T21:17:04.103Z,11.10
2023-03-29T21:19:33.478Z,11.20
2023-03-29T21:22:03.164Z,11.20
2023-03-29T21:24:32.754Z,11.20
2023-03-29T21:27:01.544Z,11.30
2023-03-29T21:29:29.791Z,11.30
2023-03-29T21:31:59.903Z,11.30
2023-03-29T21:34:28.511Z,11.30
2023-03-29T21:36:56.690Z,11.30
2023-03-29T21:39:28.245Z,11.30
2023-03-29T21:41:56.862Z,11.30
2023-03-29T21:44:26.196Z,11.30
2023-03-29T21:46:54.680Z,11.30
2023-03-29T21:49:23.390Z,11.40
2023-03-29T21:51:51.701Z,11.50
2023-03-29T21:54:20.391Z,11.50
2023-03-29T21:56:49.998Z,11.40
2023-03-29T21:59:18.280Z,11.40
2023-03-29T22:01:47.320Z,11.40
2023-03-29T22:04:22.801Z,11.40
2023-03-29T22:07:02.808Z,11.40
2023-03-29T22:09:31.461Z,11.50
2023-03-29T22:12:01.746Z,11.40
2023-03-29T22:14:35.023Z,11.40
2023-03-29T22:17:05.671Z,11.40
2023-03-29T22:19:39.267Z,11.40
2023-03-29T22:22:13.339Z,11.40
2023-03-29T22:24:42.691Z,11.40
2023-03-29T22:27:12.859Z,11.40
2023-03-29T22:29:41.027Z,11.40
2023-03-29T22:32:09.693Z,11.40
2023-03-29T22:34:38.049Z,11.40
2023-03-29T22:37:06.444Z,11.40
2023-03-29T22:39:36.822Z,11.40
2023-03-29T22:42:05.423Z,11.50
2023-03-29T22:44:35.163Z,11.50
2023-03-29T22:47:03.509Z,11.50
2023-03-29T22:49:32.131Z,11.50
2023-03-29T22:52:01.590Z,11.50
2023-03-29T22:54:30.594Z,11.50
2023-03-29T22:56:59.244Z,11.50
2023-03-29T22:59:27.996Z,11.50
2023-03-29T23:01:58.081Z,11.50
2023-03-29T23:04:26.368Z,11.50
2023-03-29T23:06:54.536Z,11.40
2023-03-29T23:09:23.288Z,11.50
2023-03-29T23:11:51.446Z,11.40
2023-03-29T23:14:19.940Z,11.50
2023-03-29T23:16:48.227Z,11.50
2023-03-29T23:19:17.884Z,11.50
2023-03-29T23:21:46.676Z,11.50
2023-03-29T23:24:18.850Z,11.50
2023-03-29T23:26:48.995Z,11.50
2023-03-29T23:29:17.137Z,11.60
2023-03-29T23:31:45.452Z,11.60
2023-03-29T23:34:13.578Z,11.50
2023-03-29T23:36:46.327Z,11.40
2023-03-29T23:39:14.599Z,11.50
2023-03-29T23:41:42.689Z,11.50
2023-03-29T23:44:10.902Z,11.40
2023-03-29T23:46:39.194Z,11.50
2023-03-29T23:49:08.372Z,11.40
2023-03-29T23:51:36.724Z,11.40
2023-03-29T23:54:06.643Z,11.40
2023-03-29T23:56:34.957Z,11.40
2023-03-29T23:59:04.554Z,11.40
